Latest Coastal Weather Observations for Rundle Island

IDQ60701

Issued at 3:12 am EST Monday 8 February 2016 (issued every 10 minutes, with the page automatically refreshed every 10 minutes)

About coastal observations | Map of coastal stations | Coastal observations for QLD | Marine services | Other Formats
Station Details ID: 039322 Name: RUNDLE ISLAND Lat: -23.53 Lon: 151.28 Height: 19.8 m
Data from the previous 72 hours. | See also: Recent months at Rundle Island
Date/Time
EST
Temp

°C
Wind Pressure Rain
since 9am
mm
Weather Cloud Vis
km
Sea
Height
m
Swell
Dir
 
Speed
knots
Gust
knots
hPa Trend Height
m
Period
s
Dir
08/03:00am 25.5 SSE 23 27 1010.3 - - - - - - - - -
08/02:30am 25.6 SE 24 28 1010.3 - - - - - - - - -
08/02:00am 25.3 SSE 27 31 1010.3 - - - - - - - - -
08/01:30am 25.8 SE 25 29 1010.6 - - - - - - - - -
08/01:00am 24.9 SE 24 29 1011.1 - - - - - - - - -
08/12:30am 25.5 SSE 24 26 1011.3 - - - - - - - - -
08/12:00am 25.8 SE 22 26 1011.6 - - - - - - - - -
 
Date/Time
EST
Temp

°C
Wind Pressure Rain
since 9am
mm
Weather Cloud Vis
km
Sea
Height
m
Swell
Dir
 
Speed
knots
Gust
knots
hPa Trend Height
m
Period
s
Dir
07/11:30pm 26.7 SE 24 30 1011.7 - - - - - - - - -
07/11:00pm 26.7 SE 24 28 1011.9 - - - - - - - - -
07/10:30pm 26.8 ESE 26 30 1011.8 - - - - - - - - -
07/10:00pm 26.9 SE 27 30 1011.9 - - - - - - - - -
07/09:30pm 26.9 SE 26 30 1011.6 - - - - - - - - -
07/09:00pm 27.0 SE 25 30 1011.2 - - - - - - - - -
07/08:30pm 26.8 SE 24 29 1011.0 - - - - - - - - -
07/08:00pm 27.1 ESE 23 27 1010.8 - - - - - - - - -
07/07:30pm 27.0 SE 22 25 1010.6 - - - - - - - - -
07/07:00pm 27.0 ESE 23 25 1010.2 - - - - - - - - -
07/06:30pm 26.7 ESE 23 27 1009.8 - - - - - - - - -
07/06:00pm 26.7 ESE 20 23 1009.6 - - - - - - - - -
07/05:30pm 27.1 ESE 22 25 1009.2 - - - - - - - - -
07/05:00pm 26.6 ESE 21 25 1009.0 - - - - - - - - -
07/04:30pm 27.2 SE 23 26 1008.5 - - - - - - - - -
07/04:00pm 27.3 SE 21 24 1008.4 - - - - - - - - -
07/03:30pm 26.9 SE 22 26 1008.2 - - - - - - - - -
07/03:00pm 26.8 SE 22 25 1008.4 - - - - - - - - -
07/02:30pm 26.9 SE 22 28 1008.7 - - - - - - - - -
07/02:00pm 26.9 SE 22 25 1008.8 - - - - - - - - -
07/01:30pm 27.0 SE 23 26 1008.9 - - - - - - - - -
07/01:00pm 26.6 SE 19 23 1009.0 - - - - - - - - -
07/12:30pm 26.1 SE 20 23 1009.5 - - - - - - - - -
07/12:00pm 26.4 SE 21 25 1009.6 - - - - - - - - -
07/11:30am 26.3 SE 22 26 1009.8 - - - - - - - - -
07/11:00am 26.1 SSE 21 23 1010.2 - - - - - - - - -
07/10:30am 26.1 SSE 23 26 1010.3 - - - - - - - - -
07/10:00am 26.1 SSE 22 25 1010.1 - - - - - - - - -
07/09:30am 25.8 SSE 21 25 1009.7 - - - - - - - - -
07/09:00am 25.9 SE 21 24 1009.9 - - - - - - - - -
07/08:30am 26.0 SSE 22 25 1009.7 - - - - - - - - -
07/08:00am 26.0 SE 20 23 1009.6 - - - - - - - - -
07/07:30am 25.7 SE 23 26 1008.9 - - - - - - - - -
07/07:00am 25.8 SSE 22 25 1008.7 - - - - - - - - -
07/06:30am 25.6 SSE 21 24 1009.0 - - - - - - - - -
07/06:00am 25.7 SSE 23 27 1008.3 - - - - - - - - -
07/05:30am 25.7 SE 22 26 1007.7 - - - - - - - - -
07/05:00am 25.6 SE 23 26 1007.4 - - - - - - - - -
07/04:30am 25.8 SE 20 22 1007.7 - - - - - - - - -
07/04:00am 26.0 SSE 20 23 1007.6 - - - - - - - - -
07/03:30am 26.5 SE 25 30 1007.1 - - - - - - - - -
07/03:00am 25.9 ESE 23 27 1007.2 - - - - - - - - -
07/02:30am 24.0 SE 27 33 1007.3 - - - - - - - - -
07/02:00am 25.4 SE 23 27 1007.5 - - - - - - - - -
07/01:49am 24.9 SE 23 27 1007.4 - - - - - - - - -
07/01:30am 24.7 SSE 22 26 1007.6 - - - - - - - - -
07/01:00am 25.4 SE 22 25 1008.0 - - - - - - - - -
07/12:30am 25.6 SE 25 30 1008.1 - - - - - - - - -
07/12:00am 25.3 SE 24 29 1008.4 - - - - - - - - -
 
Date/Time
EST
Temp

°C
Wind Pressure Rain
since 9am
mm
Weather Cloud Vis
km
Sea
Height
m
Swell
Dir
 
Speed
knots
Gust
knots
hPa Trend Height
m
Period
s
Dir
06/11:58pm 25.6 SE 24 29 1008.5 - - - - - - - - -
06/11:30pm 25.4 SE 26 30 1008.7 - - - - - - - - -
06/11:00pm 25.4 SE 26 31 1009.0 - - - - - - - - -
06/10:30pm 24.6 ESE 27 31 1009.3 - - - - - - - - -
06/10:00pm 26.2 SE 24 29 1009.4 - - - - - - - - -
06/09:30pm 25.8 SE 23 29 1009.1 - - - - - - - - -
06/09:00pm 26.3 ESE 24 30 1008.9 - - - - - - - - -
06/08:30pm 26.4 SE 25 28 1008.5 - - - - - - - - -
06/08:00pm 26.4 ESE 25 28 1008.3 - - - - - - - - -
06/07:30pm 26.2 SE 25 30 1007.7 - - - - - - - - -
06/07:00pm 26.2 SE 26 30 1007.2 - - - - - - - - -
06/06:30pm 26.5 ESE 25 30 1006.5 - - - - - - - - -
06/06:00pm 26.2 ESE 26 31 1006.1 - - - - - - - - -
06/05:30pm 25.9 SE 23 29 1005.9 - - - - - - - - -
06/05:00pm 26.3 ESE 23 26 1005.4 - - - - - - - - -
06/04:30pm 26.4 ESE 25 28 1005.3 - - - - - - - - -
06/04:00pm 26.7 ESE 25 28 1005.2 - - - - - - - - -
06/03:30pm 26.0 SE 21 25 1005.5 - - - - - - - - -
06/03:00pm 26.3 SE 20 24 1005.8 - - - - - - - - -
06/02:30pm 26.1 SE 23 25 1005.8 - - - - - - - - -
06/02:00pm 25.6 ESE 24 27 1006.0 - - - - - - - - -
06/01:30pm 26.1 SE 23 28 1005.8 - - - - - - - - -
06/01:00pm 26.5 ESE 24 28 1005.9 - - - - - - - - -
06/12:30pm 26.1 ESE 24 27 1006.0 - - - - - - - - -
06/12:00pm 26.5 ESE 22 25 1006.4 - - - - - - - - -
06/11:30am 26.3 ESE 21 27 1006.1 - - - - - - - - -
06/11:00am 26.8 ESE 24 28 1005.9 - - - - - - - - -
06/10:30am 26.6 ESE 26 29 1005.8 - - - - - - - - -
06/10:00am 26.2 ESE 23 27 1006.3 - - - - - - - - -
06/09:30am 26.1 ESE 23 27 1006.6 - - - - - - - - -
06/09:00am 25.9 ESE 21 24 1006.7 - - - - - - - - -
06/08:30am 25.3 ESE 21 25 1006.9 - - - - - - - - -
06/08:00am 25.8 ESE 18 23 1006.9 - - - - - - - - -
06/07:30am 25.9 ESE 23 29 1006.7 - - - - - - - - -
06/07:00am 25.5 E 26 29 1006.1 - - - - - - - - -
06/06:30am 25.1 ESE 23 28 1005.9 - - - - - - - - -
06/06:00am 25.1 ESE 23 27 1005.6 - - - - - - - - -
06/05:30am 25.7 ESE 19 24 1005.3 - - - - - - - - -
06/05:00am 27.1 ESE 23 26 1004.7 - - - - - - - - -
06/04:30am 27.3 ESE 24 27 1004.5 - - - - - - - - -
06/04:00am 27.2 ESE 24 27 1004.4 - - - - - - - - -
06/03:30am 26.6 SE 21 27 1004.3 - - - - - - - - -
06/03:00am 27.1 SE 20 29 1004.1 - - - - - - - - -
06/02:30am 27.0 ESE 24 28 1003.8 - - - - - - - - -
06/02:00am 27.0 ESE 24 28 1004.1 - - - - - - - - -
06/01:30am 26.7 SE 22 27 1004.2 - - - - - - - - -
06/01:00am 26.0 SE 21 27 1004.8 - - - - - - - - -
06/12:30am 27.2 SE 25 29 1005.5 - - - - - - - - -
06/12:00am 27.2 SE 24 28 1005.7 - - - - - - - - -
 
Date/Time
EST
Temp

°C
Wind Pressure Rain
since 9am
mm
Weather Cloud Vis
km
Sea
Height
m
Swell
Dir
 
Speed
knots
Gust
knots
hPa Trend Height
m
Period
s
Dir
05/11:30pm 26.9 SE 24 29 1006.3 - - - - - - - - -
05/11:00pm 26.9 ESE 27 32 1006.5 - - - - - - - - -
05/10:30pm 26.9 ESE 27 31 1006.8 - - - - - - - - -
05/10:00pm 27.0 ESE 29 35 1006.9 - - - - - - - - -
05/09:30pm 26.5 ESE 25 30 1007.0 - - - - - - - - -
05/09:00pm 25.9 ESE 28 31 1006.9 - - - - - - - - -
05/08:30pm 26.3 ESE 29 37 1006.2 - - - - - - - - -
05/08:00pm 25.3 ESE 27 33 1006.1 - - - - - - - - -
05/07:57pm 25.0 ESE 30 41 1006.0 - - - - - - - - -
05/07:30pm 24.8 SE 29 34 1005.9 - - - - - - - - -
05/07:00pm 24.8 SE 31 37 1005.6 - - - - - - - - -
05/06:30pm 25.5 SE 28 33 1005.3 - - - - - - - - -
05/06:00pm 25.1 SE 30 37 1004.9 - - - - - - - - -
05/05:30pm 25.3 SE 28 33 1004.4 - - - - - - - - -
05/05:00pm 25.4 SE 26 32 1004.2 - - - - - - - - -
05/04:30pm 25.1 SE 27 30 1004.2 - - - - - - - - -
05/04:00pm 25.4 SE 28 33 1004.0 - - - - - - - - -
05/03:30pm 26.4 SE 28 32 1004.0 - - - - - - - - -
05/03:00pm 25.7 SE 27 34 1004.3 - - - - - - - - -
05/02:48pm 25.6 SE 24 35 1004.2 - - - - - - - - -
05/02:30pm 26.2 SE 23 27 1004.3 - - - - - - - - -
05/02:00pm 26.3 SE 26 30 1004.3 - - - - - - - - -
05/01:30pm 26.0 SE 28 32 1004.4 - - - - - - - - -
05/01:00pm 24.8 SE 29 33 1004.4 - - - - - - - - -
05/12:30pm 26.3 SE 26 29 1004.4 - - - - - - - - -
05/12:00pm 26.4 SE 25 30 1004.8 - - - - - - - - -
05/11:30am 26.3 SE 27 31 1004.9 - - - - - - - - -
05/11:00am 26.5 SE 27 32 1005.0 - - - - - - - - -
05/10:30am 26.3 SE 26 31 1005.2 - - - - - - - - -
05/10:00am 25.9 SE 25 28 1005.3 - - - - - - - - -
05/09:30am 25.9 ESE 27 33 1005.1 - - - - - - - - -
05/09:00am 25.6 SE 27 31 1004.9 - - - - - - - - -
05/08:30am 25.6 SE 25 30 1004.4 - - - - - - - - -
05/08:00am 25.6 SE 24 28 1004.3 - - - - - - - - -
05/07:30am 24.9 SE 25 28 1004.0 - - - - - - - - -
05/07:00am 25.1 SE 25 29 1003.7 - - - - - - - - -
05/06:30am 24.9 SSE 23 29 1003.7 - - - - - - - - -
05/06:00am 25.0 SSE 24 27 1003.3 - - - - - - - - -
05/05:30am 24.9 SSE 23 26 1003.1 - - - - - - - - -
05/05:00am 25.1 SE 22 25 1003.0 - - - - - - - - -
05/04:30am 24.9 SE 24 28 1002.6 - - - - - - - - -
05/04:00am 24.9 SE 25 29 1002.2 - - - - - - - - -
05/03:30am 25.0 SE 25 29 1002.1 - - - - - - - - -

Other Formats:

Comma delimited format used in spreadsheet applications
http://www.bom.gov.au/fwo/IDQ60701/IDQ60701.94378.axf

JavaScript Object Notation format (JSON) in row-major order
http://www.bom.gov.au/fwo/IDQ60701/IDQ60701.94378.json